createdAt,value
2022-09-30T00:00:16.716Z,99345.68
2022-09-30T00:01:17.226Z,99343.83
2022-09-30T00:02:17.928Z,99347.05
2022-09-30T00:03:17.989Z,99345.95
2022-09-30T00:04:23.922Z,99348.48
2022-09-30T00:05:21.556Z,99346.27
2022-09-30T00:06:22.272Z,99348.56
2022-09-30T00:07:22.246Z,99348.64
2022-09-30T00:08:22.817Z,99347.7
2022-09-30T00:09:23.300Z,99347.59
2022-09-30T00:10:23.556Z,99346.94
2022-09-30T00:11:27.218Z,99345.81
2022-09-30T00:12:24.787Z,99344.61
2022-09-30T00:13:25.315Z,99344.03
2022-09-30T00:14:25.459Z,99341.08
2022-09-30T00:15:25.875Z,99339.15
2022-09-30T00:16:29.362Z,99342.49
2022-09-30T00:17:27.066Z,99342.67
2022-09-30T00:18:28.711Z,99344.25
2022-09-30T00:19:27.848Z,99349.67
2022-09-30T00:20:28.105Z,99350.73
2022-09-30T00:21:28.870Z,99349.38
2022-09-30T00:22:29.158Z,99350.55
2022-09-30T00:23:29.558Z,99346
2022-09-30T00:24:30.299Z,99347.19
2022-09-30T00:25:30.029Z,99344.38
2022-09-30T00:26:31.189Z,99350.67
2022-09-30T00:27:30.919Z,99347.69
2022-09-30T00:28:31.841Z,99347.01
2022-09-30T00:29:32.296Z,99348.48
2022-09-30T00:30:33.464Z,99349.55
2022-09-30T00:31:35.002Z,99348.97
2022-09-30T00:32:33.200Z,99348.62
2022-09-30T00:33:33.883Z,99348.39
2022-09-30T00:34:34.158Z,99350.94
2022-09-30T00:35:34.349Z,99351.45
2022-09-30T00:37:37.328Z,99353.69
2022-09-30T00:38:37.773Z,99349.73
2022-09-30T00:39:38.369Z,99348.62
2022-09-30T00:40:39.200Z,99343.81
2022-09-30T00:41:39.153Z,99342.39
2022-09-30T00:42:42.267Z,99343.9
2022-09-30T00:43:45.975Z,99341.17
2022-09-30T00:46:48.451Z,99334.53
2022-09-30T00:48:57.259Z,99339.08
2022-09-30T00:49:57.782Z,99334.94
2022-09-30T00:50:56.304Z,99338.12
2022-09-30T00:51:58.305Z,99336.91
2022-09-30T00:57:09.216Z,99338.23
2022-09-30T00:58:11.568Z,99346.94
2022-09-30T00:59:14.329Z,99346.56
2022-09-30T01:00:12.228Z,99346.3
2022-09-30T01:01:12.651Z,99350.3
2022-09-30T01:02:12.773Z,99350.66
2022-09-30T01:03:13.753Z,99353.47
2022-09-30T01:04:17.027Z,99350.25
2022-09-30T01:05:15.111Z,99346.95
2022-09-30T01:06:15.096Z,99347.81
2022-09-30T01:07:15.300Z,99348.07
2022-09-30T01:08:18.899Z,99345.66
2022-09-30T01:09:16.923Z,99344.05
2022-09-30T01:10:17.271Z,99347.78
2022-09-30T01:11:17.926Z,99350.83
2022-09-30T01:12:21.483Z,99351.87
2022-09-30T01:13:21.380Z,99349.64
2022-09-30T01:14:25.181Z,99351.77
2022-09-30T01:15:32.968Z,99354.11
2022-09-30T01:51:00.538Z,99370.46
2022-09-30T01:54:03.648Z,99378.66
2022-09-30T01:57:18.716Z,99392.98
2022-09-30T02:00:11.252Z,99386.09
2022-09-30T02:11:43.270Z,99396.99
2022-09-30T02:13:51.604Z,99394.5
2022-09-30T02:15:57.987Z,99391.49
2022-09-30T02:16:58.173Z,99395.45
2022-09-30T02:19:03.074Z,99392.66
2022-09-30T02:20:01.764Z,99393.55
2022-09-30T02:21:03.466Z,99397.34
2022-09-30T02:26:24.427Z,99391.01
2022-09-30T02:27:28.424Z,99392.58
2022-09-30T02:28:29.355Z,99392.09
2022-09-30T02:29:31.418Z,99392.67
2022-09-30T02:30:29.955Z,99390.22
2022-09-30T02:31:31.586Z,99394.75
2022-09-30T02:34:45.543Z,99394.34
2022-09-30T02:35:45.677Z,99397.84
2022-09-30T02:37:54.095Z,99392
2022-09-30T02:39:02.595Z,99393.22
2022-09-30T02:40:06.815Z,99396.78
2022-09-30T02:41:06.314Z,99400.59
2022-09-30T02:43:07.940Z,99397.21
2022-09-30T02:44:06.836Z,99394.09
2022-09-30T02:45:10.675Z,99398.64
2022-09-30T02:58:41.835Z,99394.5
2022-09-30T02:59:40.314Z,99395.05
2022-09-30T03:00:41.512Z,99394.81
2022-09-30T03:01:41.507Z,99397.23
2022-09-30T03:02:42.079Z,99399.26
2022-09-30T03:04:45.566Z,99398.44
2022-09-30T03:05:44.046Z,99401.13
2022-09-30T03:06:43.933Z,99403.76
2022-09-30T03:07:43.764Z,99401.7
2022-09-30T03:08:44.517Z,99407.81
2022-09-30T03:09:44.867Z,99407.05
2022-09-30T03:10:47.574Z,99407.78
2022-09-30T03:11:46.942Z,99410.49
2022-09-30T03:30:35.096Z,99404.88
2022-09-30T03:38:04.328Z,99410.45
2022-09-30T03:40:08.745Z,99411.48
2022-09-30T03:47:25.272Z,99418.05
2022-09-30T03:48:25.849Z,99419.96
2022-09-30T03:50:28.355Z,99419.74
2022-09-30T03:51:26.412Z,99420.59
2022-09-30T03:52:27.750Z,99419.24
2022-09-30T03:53:27.249Z,99421.63
2022-09-30T03:54:27.027Z,99419.05
2022-09-30T03:55:28.618Z,99423.33
2022-09-30T03:56:31.155Z,99421.84
2022-09-30T03:57:30.263Z,99424.03
2022-09-30T03:58:28.928Z,99416.78
2022-09-30T03:59:29.290Z,99418.81
2022-09-30T04:00:29.713Z,99420.08
2022-09-30T04:01:30.287Z,99419.45
2022-09-30T04:02:30.790Z,99421.31
2022-09-30T04:03:30.836Z,99420.75
2022-09-30T04:04:31.418Z,99420.52
2022-09-30T04:05:31.580Z,99425.44
2022-09-30T04:06:32.054Z,99421.84
2022-09-30T04:07:33.604Z,99421.19
2022-09-30T04:08:34.050Z,99417.73
2022-09-30T04:09:33.551Z,99419.42
2022-09-30T04:10:33.762Z,99419.92
2022-09-30T04:11:34.135Z,99423.15
2022-09-30T04:12:34.536Z,99422.69
2022-09-30T04:13:35.065Z,99422.03
2022-09-30T04:14:35.677Z,99421.12
2022-09-30T04:15:36.221Z,99419.2
2022-09-30T04:16:36.330Z,99416.8
2022-09-30T04:17:36.483Z,99418.33
2022-09-30T04:18:38.470Z,99419.66
2022-09-30T04:19:37.474Z,99416.94
2022-09-30T04:20:38.793Z,99415.64
2022-09-30T04:21:38.065Z,99421.23
2022-09-30T04:22:38.504Z,99421.09
2022-09-30T04:23:40.352Z,99422.22
2022-09-30T04:24:39.235Z,99423.59
2022-09-30T04:25:39.584Z,99428.74
2022-09-30T04:26:39.915Z,99424.81
2022-09-30T04:27:40.575Z,99424.95
2022-09-30T04:28:41.614Z,99426.75
2022-09-30T04:29:41.314Z,99424.5
2022-09-30T04:30:41.733Z,99424.06
2022-09-30T04:31:42.600Z,99423.77
2022-09-30T04:32:43.754Z,99428.74
2022-09-30T04:33:42.983Z,99425.73
2022-09-30T04:34:43.287Z,99429.32
2022-09-30T04:35:43.605Z,99430.14
2022-09-30T04:36:44.735Z,99431.66
2022-09-30T04:37:45.667Z,99434.26
2022-09-30T04:38:45.072Z,99436.99
2022-09-30T04:39:45.162Z,99438.23
2022-09-30T04:40:45.583Z,99437.44
2022-09-30T04:41:46.045Z,99444.22
2022-09-30T04:42:46.425Z,99444.62
2022-09-30T04:43:48.672Z,99444
2022-09-30T04:44:47.352Z,99446.98
2022-09-30T04:45:48.182Z,99448.3
2022-09-30T04:46:47.989Z,99445.13
2022-09-30T04:47:48.728Z,99448.27
2022-09-30T04:48:49.541Z,99451.12
2022-09-30T04:49:49.282Z,99444.34
2022-09-30T04:50:50.667Z,99448.38
2022-09-30T04:51:50.174Z,99447.3
2022-09-30T04:52:50.884Z,99443.92
2022-09-30T04:53:51.112Z,99448.41
2022-09-30T04:54:51.144Z,99450.06
2022-09-30T04:55:51.726Z,99454.58
2022-09-30T04:56:51.996Z,99450.62
2022-09-30T04:57:52.556Z,99452.69
2022-09-30T04:58:53.331Z,99458.3
2022-09-30T04:59:53.723Z,99457.61
2022-09-30T05:01:57.556Z,99461.74
2022-09-30T05:02:57.705Z,99462.2
2022-09-30T05:03:58.331Z,99461.56
2022-09-30T05:04:58.756Z,99463.88
2022-09-30T05:05:58.847Z,99463.23
2022-09-30T05:07:00.192Z,99464.42
2022-09-30T05:08:01.649Z,99463.38
2022-09-30T05:09:00.170Z,99466.64
2022-09-30T05:10:00.422Z,99467.61
2022-09-30T05:11:03.703Z,99473.78
2022-09-30T05:12:02.282Z,99472.14
2022-09-30T05:13:01.869Z,99473.59
2022-09-30T05:15:07.860Z,99474.87
2022-09-30T05:16:06.871Z,99480.28
2022-09-30T05:17:05.804Z,99479.34
2022-09-30T05:18:06.160Z,99481.12
2022-09-30T05:19:06.641Z,99481.34
2022-09-30T05:20:07.961Z,99481.91
2022-09-30T05:21:07.724Z,99480.63
2022-09-30T05:22:07.561Z,99483.47
2022-09-30T05:23:08.501Z,99486.45
2022-09-30T05:24:08.501Z,99483.33
2022-09-30T05:25:09.521Z,99485.91
2022-09-30T05:26:12.237Z,99483.05
2022-09-30T05:27:10.352Z,99485.77
2022-09-30T05:28:10.972Z,99486.62
2022-09-30T05:29:11.693Z,99488.22
2022-09-30T05:30:12.022Z,99485.22
2022-09-30T05:31:12.255Z,99492.14
2022-09-30T05:32:12.433Z,99489.94
2022-09-30T05:33:14.383Z,99490.34
2022-09-30T05:34:13.267Z,99489.47
2022-09-30T05:35:14.220Z,99494.34
2022-09-30T05:36:15.960Z,99491.38
2022-09-30T05:37:14.409Z,99496.69
2022-09-30T05:38:14.695Z,99494.44
2022-09-30T05:39:15.397Z,99499.42
2022-09-30T05:40:15.680Z,99498.27
2022-09-30T05:41:15.991Z,99503.39
2022-09-30T05:42:16.404Z,99502.44
2022-09-30T05:43:16.709Z,99504.7
2022-09-30T05:44:17.323Z,99504.18
2022-09-30T05:45:17.743Z,99505.67
2022-09-30T05:46:19.750Z,99509.95
2022-09-30T05:47:18.491Z,99515.86
2022-09-30T05:48:18.580Z,99515.56
2022-09-30T05:49:19.201Z,99517.19
2022-09-30T05:50:19.623Z,99521.89
2022-09-30T05:51:19.945Z,99524.78
2022-09-30T05:52:23.214Z,99521.61
2022-09-30T05:53:21.082Z,99529.62
2022-09-30T05:54:21.503Z,99528.65
2022-09-30T05:55:21.601Z,99529.74
2022-09-30T05:56:22.141Z,99528.19
2022-09-30T05:57:22.377Z,99530.59
2022-09-30T05:58:22.760Z,99527.52
2022-09-30T05:59:23.476Z,99530.25
2022-09-30T06:00:23.735Z,99530.09
2022-09-30T06:01:23.837Z,99532.41
2022-09-30T06:02:24.935Z,99535.58
2022-09-30T06:03:24.825Z,99540.48
2022-09-30T06:04:25.453Z,99534.97
2022-09-30T06:05:25.763Z,99531.05
2022-09-30T06:06:26.581Z,99539.03
2022-09-30T06:07:26.498Z,99535.33
2022-09-30T06:08:27.416Z,99537.38
2022-09-30T06:09:27.244Z,99541.83
2022-09-30T06:10:27.805Z,99544.33
2022-09-30T06:11:27.960Z,99542.36
2022-09-30T06:12:28.569Z,99546.08
2022-09-30T06:13:29.101Z,99548.05
2022-09-30T06:14:29.329Z,99547.43
2022-09-30T06:15:29.528Z,99547.63
2022-09-30T06:16:30.193Z,99547.69
2022-09-30T06:17:30.400Z,99549.42
2022-09-30T06:18:31.953Z,99550.94
2022-09-30T06:19:31.182Z,99556.52
2022-09-30T06:20:31.500Z,99556.33
2022-09-30T06:21:31.983Z,99557.97
2022-09-30T06:22:34.163Z,99558.06
2022-09-30T06:23:33.454Z,99560.92
2022-09-30T06:24:33.256Z,99556.38
2022-09-30T06:25:33.784Z,99557.69
2022-09-30T06:26:33.887Z,99562.02
2022-09-30T06:27:34.623Z,99557.91
2022-09-30T06:28:35.032Z,99559.72
2022-09-30T06:29:35.201Z,99560.64
2022-09-30T06:30:35.715Z,99565.34
2022-09-30T06:31:36.267Z,99568.19
2022-09-30T06:32:36.382Z,99565.34
2022-09-30T06:33:36.893Z,99569.06
2022-09-30T06:34:37.443Z,99566.75
2022-09-30T06:35:37.631Z,99571.67
2022-09-30T06:36:37.945Z,99574.3
2022-09-30T06:37:39.043Z,99572.34
2022-09-30T06:38:38.783Z,99575.32
2022-09-30T06:39:39.598Z,99575.75
2022-09-30T06:40:39.620Z,99576.55
2022-09-30T06:41:39.962Z,99578.17
2022-09-30T06:42:40.563Z,99574.34
2022-09-30T06:43:53.936Z,99577.08
2022-09-30T06:44:52.091Z,99583.84
2022-09-30T06:45:49.351Z,99583.83
2022-09-30T06:46:53.690Z,99583.22
2022-09-30T06:47:59.784Z,99588.29
2022-09-30T06:49:07.377Z,99588.32
2022-09-30T06:49:53.702Z,99589.05
2022-09-30T06:51:01.950Z,99591.95
2022-09-30T06:51:54.743Z,99593.06
2022-09-30T06:52:59.663Z,99593.82
2022-09-30T06:53:57.199Z,99600.81
2022-09-30T06:54:57.562Z,99599.52
2022-09-30T06:55:58.361Z,99598.25
2022-09-30T06:56:58.346Z,99603.12
2022-09-30T06:57:58.771Z,99605.73
2022-09-30T06:58:59.300Z,99604.12
2022-09-30T06:59:59.620Z,99606.97
2022-09-30T07:01:05.432Z,99611
2022-09-30T07:02:03.180Z,99614.38
2022-09-30T07:03:04.042Z,99609.78
2022-09-30T07:04:03.782Z,99612.33
2022-09-30T07:05:04.889Z,99612.87
2022-09-30T07:06:06.499Z,99611.75
2022-09-30T07:07:05.179Z,99613.78
2022-09-30T07:08:05.813Z,99613.15
2022-09-30T07:09:06.695Z,99616.96
2022-09-30T07:10:07.362Z,99615.39
2022-09-30T07:11:12.801Z,99612.41
2022-09-30T07:12:10.547Z,99618.52
2022-09-30T07:13:10.748Z,99616.75
2022-09-30T07:14:11.243Z,99619.91
2022-09-30T07:15:13.841Z,99621.39
2022-09-30T07:16:16.658Z,99622.99
2022-09-30T07:17:14.071Z,99623.7
2022-09-30T07:18:14.683Z,99624.3
2022-09-30T07:19:15.087Z,99629.47
2022-09-30T07:20:15.501Z,99624.98
2022-09-30T07:21:16.235Z,99626.25
2022-09-30T07:22:16.341Z,99626.48
2022-09-30T07:23:16.665Z,99624.8
2022-09-30T07:24:17.913Z,99625.84
2022-09-30T07:25:18.298Z,99627.03
2022-09-30T07:26:20.045Z,99632.56
2022-09-30T07:27:18.269Z,99634.37
2022-09-30T07:28:18.524Z,99636.67
2022-09-30T07:29:19.019Z,99633.59
2022-09-30T07:30:26.793Z,99636.02
2022-09-30T07:31:33.056Z,99642.64
2022-09-30T07:32:23.085Z,99639.88
2022-09-30T07:33:26.851Z,99636.2
2022-09-30T07:34:24.300Z,99636.2
2022-09-30T07:35:24.722Z,99640.94
2022-09-30T07:36:31.172Z,99642.53
2022-09-30T07:37:30.063Z,99645
2022-09-30T07:38:30.727Z,99644.81
2022-09-30T07:39:30.903Z,99647.66
2022-09-30T07:40:31.324Z,99649
2022-09-30T07:41:31.817Z,99648.06
2022-09-30T07:42:32.451Z,99654.48
2022-09-30T07:43:33.167Z,99650.96
2022-09-30T07:44:33.166Z,99654.19
2022-09-30T07:45:33.526Z,99655.22
2022-09-30T07:46:35.947Z,99656.62
2022-09-30T07:47:34.320Z,99654.7
2022-09-30T07:48:34.943Z,99661.16
2022-09-30T07:49:35.061Z,99660.27
2022-09-30T07:50:35.462Z,99658.47
2022-09-30T07:51:40.892Z,99661.92
2022-09-30T07:52:38.401Z,99664.72
2022-09-30T07:53:39.901Z,99663.27
2022-09-30T07:54:43.310Z,99667.56
2022-09-30T07:55:42.981Z,99668.92
2022-09-30T07:57:46.153Z,99673.98
2022-09-30T07:58:46.583Z,99672.88
2022-09-30T07:59:47.090Z,99674.28
2022-09-30T08:00:48.526Z,99673.34
2022-09-30T08:01:48.855Z,99675.44
2022-09-30T08:02:48.982Z,99677.78
2022-09-30T08:04:51.421Z,99679.02
2022-09-30T08:05:52.660Z,99680.84
2022-09-30T08:06:56.780Z,99685
2022-09-30T08:07:54.253Z,99687.67
2022-09-30T08:08:56.493Z,99689.77
2022-09-30T08:09:55.121Z,99687.94
2022-09-30T08:10:59.503Z,99693.56
2022-09-30T08:11:57.425Z,99695.78
2022-09-30T08:12:59.255Z,99698.13
2022-09-30T08:13:58.560Z,99699.17
2022-09-30T08:14:59.078Z,99699.89
2022-09-30T08:15:59.860Z,99699.98
2022-09-30T08:17:00.029Z,99703.89
2022-09-30T08:19:02.369Z,99700.91
2022-09-30T08:20:01.722Z,99703.41
2022-09-30T08:23:04.044Z,99703.27
2022-09-30T08:24:04.881Z,99699.5
2022-09-30T08:25:05.896Z,99704.98
2022-09-30T08:26:07.761Z,99703.98
2022-09-30T08:27:05.844Z,99705.48
2022-09-30T08:28:06.220Z,99701.86
2022-09-30T08:29:07.258Z,99703.77
2022-09-30T08:30:08.185Z,99710.84
2022-09-30T08:32:10.882Z,99703.31
2022-09-30T08:33:11.063Z,99706.56
2022-09-30T08:34:11.441Z,99700.8
2022-09-30T08:35:11.905Z,99705.35
2022-09-30T08:37:16.321Z,99701.33
2022-09-30T08:38:16.547Z,99695.5
2022-09-30T08:39:17.041Z,99701.95
2022-09-30T08:40:26.120Z,99700.8
2022-09-30T08:53:46.904Z,99725.65
2022-09-30T08:54:50.636Z,99732.31
2022-09-30T08:55:48.482Z,99732.52
2022-09-30T08:56:49.846Z,99731.44
2022-09-30T08:57:50.253Z,99736.09
2022-09-30T08:58:54.246Z,99735.38
2022-09-30T09:00:01.819Z,99736.95
2022-09-30T09:01:01.163Z,99739.97
2022-09-30T09:03:03.444Z,99742.67
2022-09-30T09:04:05.612Z,99745.39
2022-09-30T09:05:06.990Z,99745.16
2022-09-30T09:16:42.529Z,99754.38
2022-09-30T09:22:52.768Z,99760.77
2022-09-30T09:23:57.011Z,99765.62
2022-09-30T09:24:56.146Z,99766.69
2022-09-30T09:25:55.144Z,99763.3
2022-09-30T09:26:58.413Z,99760.05
2022-09-30T09:28:02.465Z,99763.91
2022-09-30T09:30:14.724Z,99772.79
2022-09-30T09:31:14.191Z,99774.3
2022-09-30T09:32:17.137Z,99775.08
2022-09-30T09:33:22.522Z,99768.93
2022-09-30T09:34:15.162Z,99774.86
2022-09-30T09:47:53.841Z,99793.55
2022-09-30T09:54:05.251Z,99801.12
2022-09-30T09:55:02.980Z,99799.55
2022-09-30T09:57:07.931Z,99799.02
2022-09-30T09:58:15.213Z,99806.11
2022-09-30T09:59:20.499Z,99808.73
2022-09-30T10:01:11.385Z,99806.37
2022-09-30T10:03:25.484Z,99813.94
2022-09-30T10:04:22.229Z,99812.98
2022-09-30T10:05:29.182Z,99809.15
2022-09-30T10:06:22.018Z,99816.06
2022-09-30T10:07:22.239Z,99813
2022-09-30T10:08:23.256Z,99814.88
2022-09-30T10:09:28.693Z,99819.06
2022-09-30T10:10:26.204Z,99821.53
2022-09-30T10:11:28.088Z,99819.52
2022-09-30T10:12:28.236Z,99821.14
2022-09-30T10:16:39.601Z,99819.52
2022-09-30T10:17:40.333Z,99826.88
2022-09-30T10:21:48.078Z,99832.66
2022-09-30T10:22:48.648Z,99830.66
2022-09-30T10:23:48.970Z,99829.59
2022-09-30T10:24:49.590Z,99830.8
2022-09-30T10:26:51.572Z,99829.71
2022-09-30T10:29:58.824Z,99830.53
2022-09-30T10:32:08.949Z,99834.58
2022-09-30T10:38:14.547Z,99846.86
2022-09-30T10:42:27.683Z,99852.06
2022-09-30T10:44:28.213Z,99852.97
2022-09-30T10:45:35.778Z,99855.25
2022-09-30T10:46:37.547Z,99854.61
2022-09-30T10:47:36.734Z,99853.02
2022-09-30T10:48:37.409Z,99853.25
2022-09-30T10:49:46.331Z,99854.08
2022-09-30T10:50:39.004Z,99853.9
2022-09-30T10:51:40.445Z,99855.23
2022-09-30T10:53:44.961Z,99852.87
2022-09-30T10:55:46.100Z,99854.2
2022-09-30T10:56:46.050Z,99856.38
2022-09-30T10:57:48.165Z,99849.98
2022-09-30T10:58:51.435Z,99854.31
2022-09-30T10:59:49.968Z,99853.87
2022-09-30T11:00:55.015Z,99855.5
2022-09-30T11:02:01.955Z,99858.51
2022-09-30T11:06:07.263Z,99866.88
2022-09-30T11:11:27.364Z,99861.3
2022-09-30T11:20:51.992Z,99872.14
2022-09-30T11:24:54.683Z,99872.45
2022-09-30T11:41:47.628Z,99889.02
2022-09-30T11:43:57.364Z,99883.69
2022-09-30T11:44:45.819Z,99885.78
2022-09-30T11:58:41.941Z,99912.56
2022-09-30T12:00:21.657Z,99905.07
2022-09-30T12:06:39.929Z,99913.26
2022-09-30T12:07:46.771Z,99908.7
2022-09-30T12:08:50.589Z,99910.67
2022-09-30T12:13:57.463Z,99914.61
2022-09-30T12:15:59.416Z,99917.2
2022-09-30T12:16:58.628Z,99920.98
2022-09-30T12:26:18.655Z,99920.58
2022-09-30T12:30:29.118Z,99919.27
2022-09-30T12:50:09.268Z,99925.77
2022-09-30T12:51:07.701Z,99926.22
2022-09-30T13:00:35.303Z,99922.31
2022-09-30T13:02:38.700Z,99925.11
2022-09-30T13:04:41.844Z,99922.29
2022-09-30T13:11:00.628Z,99933.2
2022-09-30T13:16:10.142Z,99929.6
2022-09-30T13:21:25.249Z,99932.19
2022-09-30T13:23:41.142Z,99931.05
2022-09-30T13:27:42.629Z,99930.46
2022-09-30T13:28:40.301Z,99931.34
2022-09-30T13:29:47.516Z,99934.7
2022-09-30T13:30:45.479Z,99934.52
2022-09-30T13:34:57.113Z,99929.29
2022-09-30T13:35:59.367Z,99933.78
2022-09-30T13:37:04.785Z,99928.69
2022-09-30T13:40:02.970Z,99934.36
2022-09-30T13:46:25.007Z,99936.83
2022-09-30T13:51:28.211Z,99933.89
2022-09-30T13:52:34.467Z,99935.83
2022-09-30T13:53:32.676Z,99939.06
2022-09-30T13:54:35.662Z,99934.44
2022-09-30T13:56:38.579Z,99932.02
2022-09-30T14:22:36.602Z,99958.64
2022-09-30T14:23:34.900Z,99958.45
2022-09-30T14:24:37.794Z,99968.19
2022-09-30T14:30:49.845Z,99969.14
2022-09-30T14:31:48.376Z,99970.64
2022-09-30T14:33:50.834Z,99971.03
2022-09-30T14:34:50.423Z,99975.84
2022-09-30T14:35:54.000Z,99972.55
2022-09-30T14:36:53.383Z,99975.25
2022-09-30T14:38:03.734Z,99972.91
2022-09-30T14:39:02.425Z,99974.55
2022-09-30T14:40:00.673Z,99977.99
2022-09-30T14:41:04.786Z,99977.16
2022-09-30T14:42:02.734Z,99977.83
2022-09-30T14:43:05.809Z,99974.86
2022-09-30T14:44:03.776Z,99976.7
2022-09-30T14:45:06.652Z,99979.23
2022-09-30T14:46:08.374Z,99979.47
2022-09-30T14:47:06.035Z,99978.06
2022-09-30T14:48:11.285Z,99976.06
2022-09-30T14:49:14.461Z,99977.47
2022-09-30T14:50:18.090Z,99979.7
2022-09-30T14:51:22.856Z,99978.63
2022-09-30T14:54:22.901Z,99980.36
2022-09-30T14:56:32.676Z,99983.17
2022-09-30T14:57:25.778Z,99986.27
2022-09-30T14:58:28.625Z,99989.11
2022-09-30T14:59:29.627Z,99987.88
2022-09-30T15:00:30.507Z,99992.19
2022-09-30T15:01:35.396Z,99996.94
2022-09-30T15:02:33.078Z,99999.09
2022-09-30T15:03:37.521Z,99998.27
2022-09-30T15:04:39.095Z,100000.31
2022-09-30T15:05:36.887Z,100002.28
2022-09-30T15:06:39.824Z,100005.28
2022-09-30T15:07:40.589Z,100003.09
2022-09-30T15:08:38.340Z,100005.55
2022-09-30T15:09:45.217Z,100006.12
2022-09-30T15:10:50.642Z,100003.94
2022-09-30T15:11:43.470Z,100004.7
2022-09-30T15:12:43.791Z,100004.77
2022-09-30T15:13:44.311Z,100006.98
2022-09-30T15:14:57.946Z,100007.91
2022-09-30T15:15:45.963Z,100012.8
2022-09-30T15:16:52.062Z,100014.11
2022-09-30T15:17:49.768Z,100013.28
2022-09-30T15:18:50.290Z,100016.02
2022-09-30T15:19:51.115Z,100019.79
2022-09-30T15:20:53.471Z,100020.88
2022-09-30T15:21:53.482Z,100022.48
2022-09-30T15:22:53.274Z,100026.34
2022-09-30T15:23:57.381Z,100027.02
2022-09-30T15:24:57.251Z,100024.66
2022-09-30T15:25:56.172Z,100029.96
2022-09-30T15:26:55.944Z,100033.7
2022-09-30T15:27:56.531Z,100037.31
2022-09-30T15:28:56.598Z,100039.44
2022-09-30T15:29:59.271Z,100038.36
2022-09-30T15:30:59.110Z,100044.34
2022-09-30T15:33:05.041Z,100046.64
2022-09-30T15:34:20.417Z,100045.27
2022-09-30T15:40:23.806Z,100042.25
2022-09-30T15:41:21.547Z,100047
2022-09-30T15:43:38.161Z,100047.05
2022-09-30T15:44:38.934Z,100048.55
2022-09-30T15:45:35.477Z,100050.64
2022-09-30T15:46:31.440Z,100052.97
2022-09-30T15:47:29.908Z,100052.3
2022-09-30T15:48:34.204Z,100049.23
2022-09-30T15:51:40.964Z,100053.16
2022-09-30T15:52:41.289Z,100052.8
2022-09-30T15:53:48.261Z,100053.44
2022-09-30T15:54:40.691Z,100050.58
2022-09-30T15:55:43.544Z,100054.8
2022-09-30T15:56:42.689Z,100053.69
2022-09-30T15:57:47.272Z,100053.08
2022-09-30T16:01:57.172Z,100056.48
2022-09-30T16:04:01.066Z,100058.64
2022-09-30T16:05:01.264Z,100053.27
2022-09-30T16:07:11.079Z,100053.38
2022-09-30T16:08:08.631Z,100050.39
2022-09-30T16:13:16.552Z,100055.72
2022-09-30T16:15:17.595Z,100056.06
2022-09-30T16:16:24.152Z,100056.03
2022-09-30T16:17:28.153Z,100055.56
2022-09-30T16:18:34.117Z,100053.33
2022-09-30T16:19:29.390Z,100052.69
2022-09-30T16:20:28.011Z,100055.83
2022-09-30T16:23:38.641Z,100061.83
2022-09-30T16:24:46.221Z,100062.56
2022-09-30T16:25:38.848Z,100062.59
2022-09-30T16:26:44.811Z,100060.53
2022-09-30T16:27:42.847Z,100064.88
2022-09-30T16:28:43.264Z,100061
2022-09-30T16:29:46.458Z,100062.48
2022-09-30T16:30:50.037Z,100065.11
2022-09-30T16:31:50.841Z,100063.34
2022-09-30T16:32:52.101Z,100067.41
2022-09-30T16:33:50.069Z,100067.55
2022-09-30T16:34:50.271Z,100061.42
2022-09-30T16:35:50.488Z,100065.4
2022-09-30T16:36:53.167Z,100066.51
2022-09-30T16:37:58.500Z,100068.97
2022-09-30T16:38:56.100Z,100073.17
2022-09-30T16:40:00.236Z,100073.86
2022-09-30T16:40:58.197Z,100076.16
2022-09-30T16:41:58.511Z,100078.42
2022-09-30T16:42:58.780Z,100077.81
2022-09-30T16:43:59.035Z,100080.5
2022-09-30T16:44:59.449Z,100082.89
2022-09-30T16:46:00.277Z,100081.14
2022-09-30T16:47:00.812Z,100083.31
2022-09-30T16:48:02.478Z,100082.36
2022-09-30T16:52:07.795Z,100086.75
2022-09-30T16:53:08.042Z,100082.64
2022-09-30T16:54:08.782Z,100086.39
2022-09-30T16:55:09.328Z,100085.62
2022-09-30T16:56:16.415Z,100085.61
2022-09-30T16:57:14.282Z,100084.58
2022-09-30T16:58:14.696Z,100086.19
2022-09-30T16:59:16.337Z,100084.14
2022-09-30T17:00:15.741Z,100086.02
2022-09-30T17:01:24.374Z,100088.71
2022-09-30T17:02:16.943Z,100086.5
2022-09-30T17:03:18.721Z,100090.17
2022-09-30T17:04:17.910Z,100093.8
2022-09-30T17:05:21.080Z,100094
2022-09-30T17:06:20.793Z,100095.29
2022-09-30T17:07:18.881Z,100093.89
2022-09-30T17:08:20.692Z,100097.1
2022-09-30T17:09:19.772Z,100098.64
2022-09-30T17:11:26.305Z,100098.04
2022-09-30T17:12:23.799Z,100102.68
2022-09-30T17:13:24.314Z,100104.98
2022-09-30T17:14:24.839Z,100105.19
2022-09-30T17:15:25.147Z,100105.88
2022-09-30T17:16:25.827Z,100108.03
2022-09-30T17:17:25.996Z,100108.94
2022-09-30T17:18:26.085Z,100110.55
2022-09-30T17:19:26.603Z,100115
2022-09-30T17:20:27.237Z,100120.55
2022-09-30T17:21:27.965Z,100123.95
2022-09-30T17:22:27.710Z,100122.74
2022-09-30T17:23:28.236Z,100123.18
2022-09-30T17:24:28.212Z,100124.25
2022-09-30T17:25:28.794Z,100126.42
2022-09-30T17:26:29.636Z,100126.75
2022-09-30T17:27:29.630Z,100124.02
2022-09-30T17:28:29.838Z,100128.44
2022-09-30T17:29:32.664Z,100127.61
2022-09-30T17:30:30.674Z,100127.95
2022-09-30T17:31:31.163Z,100131.98
2022-09-30T17:32:31.610Z,100131.42
2022-09-30T17:33:34.228Z,100129.76
2022-09-30T17:34:32.341Z,100131.73
2022-09-30T17:35:32.656Z,100129.42
2022-09-30T17:36:33.594Z,100134.47
2022-09-30T17:37:33.615Z,100131.75
2022-09-30T17:38:34.849Z,100129.3
2022-09-30T17:39:34.060Z,100131.3
2022-09-30T17:40:34.529Z,100129.32
2022-09-30T17:41:35.325Z,100129.91
2022-09-30T17:42:35.258Z,100131.84
2022-09-30T17:43:35.774Z,100134.03
2022-09-30T17:44:36.307Z,100134.97
2022-09-30T17:45:38.836Z,100137.38
2022-09-30T17:46:42.559Z,100138.06
2022-09-30T17:47:40.098Z,100136.78
2022-09-30T17:48:40.314Z,100136.23
2022-09-30T17:49:41.067Z,100137.06
2022-09-30T17:50:44.337Z,100137.75
2022-09-30T17:51:41.660Z,100140.91
2022-09-30T17:52:42.288Z,100140.51
2022-09-30T17:53:43.938Z,100142.91
2022-09-30T17:54:43.120Z,100142.45
2022-09-30T17:55:43.839Z,100141.74
2022-09-30T17:56:43.534Z,100145.38
2022-09-30T17:57:44.058Z,100137.22
2022-09-30T17:58:44.464Z,100137.66
2022-09-30T17:59:44.682Z,100139.78
2022-09-30T18:00:45.587Z,100138.16
2022-09-30T18:01:45.612Z,100136.66
2022-09-30T18:02:46.073Z,100142.06
2022-09-30T18:03:47.233Z,100142.2
2022-09-30T18:04:46.969Z,100141.31
2022-09-30T18:05:47.132Z,100142.26
2022-09-30T18:06:47.801Z,100140.06
2022-09-30T18:07:47.810Z,100141.38
2022-09-30T18:08:49.415Z,100147.24
2022-09-30T18:09:48.538Z,100148.84
2022-09-30T18:10:49.364Z,100150.16
2022-09-30T18:11:49.482Z,100153.07
2022-09-30T18:12:49.788Z,100155.66
2022-09-30T18:14:55.329Z,100153.09
2022-09-30T18:15:56.443Z,100151.77
2022-09-30T18:16:56.154Z,100155.42
2022-09-30T18:17:56.578Z,100158.75
2022-09-30T18:18:58.779Z,100158.02
2022-09-30T18:19:57.204Z,100161
2022-09-30T18:20:57.419Z,100163.17
2022-09-30T18:21:58.143Z,100166.57
2022-09-30T18:22:58.455Z,100166.31
2022-09-30T18:23:58.989Z,100167.35
2022-09-30T18:24:58.940Z,100168.34
2022-09-30T18:25:59.503Z,100171.08
2022-09-30T18:26:59.818Z,100172.05